Time;durP1;ratioP1;P1;durP2;ratioP2;P2;SDS_P1;SDS_P2;PMS_P1;PMS_P2;Temp;Humidity;BMP_temperature;BMP_pressure;BME280_temperature;BME280_humidity;BME280_pressure;Samples;Min_cycle;Max_cycle;Signal;HPM_P1;HPM_P2
2022/03/29 00:07:22;;;;;;;33.97;15.80;;;3.10;83.30;;;;;;20679305;28;20035;-47
2022/03/29 00:17:28;;;;;;;33.90;16.67;;;2.70;84.30;;;;;;20647321;28;20038;-45
2022/03/29 00:27:30;;;;;;;37.97;17.63;;;2.60;85.30;;;;;;20678026;28;20038;-45
2022/03/29 00:37:33;;;;;;;32.13;15.52;;;2.40;86.80;;;;;;20645316;28;20050;-45
2022/03/29 00:47:36;;;;;;;32.88;15.32;;;2.30;86.10;;;;;;20676937;28;20061;-45
2022/03/29 00:57:39;;;;;;;33.30;15.85;;;2.30;85.20;;;;;;20676106;28;20038;-48
2022/03/29 01:07:41;;;;;;;31.33;14.23;;;2.30;84.70;;;;;;20675253;28;20034;-47
2022/03/29 01:17:47;;;;;;;32.08;14.18;;;2.20;83.90;;;;;;20673342;28;20030;-46
2022/03/29 01:27:51;;;;;;;34.13;16.15;;;2.00;83.60;;;;;;20673996;28;20390;-46
2022/03/29 01:37:55;;;;;;;36.30;17.27;;;2.10;87.60;;;;;;20673506;28;20116;-46
2022/03/29 01:47:58;;;;;;;39.17;17.08;;;2.00;89.20;;;;;;20671984;28;20466;-47
2022/03/29 01:58:01;;;;;;;36.10;16.73;;;2.00;90.00;;;;;;20671536;28;20516;-46
2022/03/29 02:08:03;;;;;;;35.60;15.70;;;2.20;89.30;;;;;;20670874;28;20100;-49
2022/03/29 02:18:07;;;;;;;33.53;14.52;;;2.50;87.70;;;;;;20670834;28;20069;-45
2022/03/29 02:28:10;;;;;;;36.75;16.23;;;2.80;83.20;;;;;;20669829;28;20390;-46
2022/03/29 02:38:13;;;;;;;33.88;15.75;;;2.80;85.00;;;;;;20669468;28;20129;-49
2022/03/29 02:48:16;;;;;;;31.65;16.08;;;2.80;84.50;;;;;;20669276;28;20449;-46
2022/03/29 02:58:19;;;;;;;29.83;14.60;;;2.40;85.40;;;;;;20668502;28;20405;-46
2022/03/29 03:08:21;;;;;;;30.40;13.98;;;2.30;85.10;;;;;;20652035;28;20038;-45
2022/03/29 03:18:25;;;;;;;33.55;14.68;;;2.20;84.60;;;;;;20667769;28;20038;-48
2022/03/29 03:28:27;;;;;;;32.28;14.68;;;2.20;84.50;;;;;;20668146;28;20122;-47
2022/03/29 03:38:30;;;;;;;30.27;14.88;;;2.20;85.20;;;;;;20667639;28;20124;-49
2022/03/29 03:48:32;;;;;;;30.77;16.52;;;2.10;85.30;;;;;;20681473;28;20465;-50
2022/03/29 03:58:35;;;;;;;29.02;14.88;;;2.20;85.40;;;;;;20680334;28;20065;-45
2022/03/29 04:08:37;;;;;;;36.05;15.63;;;2.20;84.70;;;;;;20667972;28;20486;-47
2022/03/29 04:18:40;;;;;;;32.65;15.77;;;2.10;84.00;;;;;;20678843;28;20050;-44
2022/03/29 04:28:43;;;;;;;34.38;15.77;;;2.00;85.20;;;;;;20645882;28;20046;-46
2022/03/29 04:38:45;;;;;;;37.88;16.60;;;1.80;85.80;;;;;;20677644;28;20120;-46
2022/03/29 04:48:48;;;;;;;37.20;16.95;;;1.60;87.20;;;;;;20676149;28;20042;-46
2022/03/29 04:58:50;;;;;;;35.63;17.02;;;1.50;90.30;;;;;;20675633;28;20065;-48
2022/03/29 05:08:52;;;;;;;34.97;16.67;;;1.40;90.50;;;;;;20674800;28;20434;-46
2022/03/29 05:18:56;;;;;;;34.03;16.77;;;1.30;90.90;;;;;;20675548;28;20038;-45
2022/03/29 05:28:59;;;;;;;34.80;16.80;;;1.30;91.10;;;;;;20673080;28;20042;-46
2022/03/29 05:39:03;;;;;;;36.05;17.08;;;1.70;91.70;;;;;;20673589;28;20065;-46
2022/03/29 05:49:06;;;;;;;29.13;15.95;;;2.30;91.40;;;;;;20672466;28;20042;-47
2022/03/29 05:59:08;;;;;;;30.17;15.30;;;2.80;90.70;;;;;;20671617;28;20042;-45
2022/03/29 06:09:11;;;;;;;34.78;15.85;;;3.10;90.00;;;;;;20672875;28;20398;-46
2022/03/29 06:19:15;;;;;;;31.90;15.73;;;3.50;89.30;;;;;;20670134;28;20042;-46
2022/03/29 06:29:18;;;;;;;32.22;16.30;;;3.90;90.30;;;;;;20669491;28;20096;-47
2022/03/29 06:39:20;;;;;;;40.60;18.92;;;4.60;89.20;;;;;;20669465;28;20576;-47
2022/03/29 06:49:23;;;;;;;29.58;15.93;;;5.20;86.80;;;;;;20671156;28;20046;-49
2022/03/29 06:59:25;;;;;;;34.80;16.73;;;5.80;87.30;;;;;;20669144;28;20043;-47
2022/03/29 07:19:49;;;;;;;36.20;16.60;;;6.80;83.90;;;;;;20674610;28;20046;-49
2022/03/29 07:29:53;;;;;;;31.65;16.75;;;7.60;81.40;;;;;;20682778;28;20038;-48
2022/03/29 07:39:56;;;;;;;31.85;17.20;;;8.50;81.00;;;;;;20681418;28;20049;-47
2022/03/29 07:49:58;;;;;;;28.52;15.80;;;9.50;76.70;;;;;;20680737;28;20034;-46
2022/03/29 08:00:31;;;;;;;32.15;16.33;;;9.90;76.00;;;;;;20680452;28;20564;-49
2022/03/29 08:10:27;;;;;;;25.98;14.57;;;10.40;72.80;;;;;;20663224;28;20374;-49
2022/03/29 08:20:31;;;;;;;26.45;15.10;;;10.50;72.50;;;;;;20678368;28;20118;-47
2022/03/29 08:30:35;;;;;;;30.98;16.27;;;11.10;71.30;;;;;;20677487;28;20050;-47
2022/03/29 08:40:40;;;;;;;25.55;14.75;;;11.80;68.60;;;;;;20677219;28;20421;-52
2022/03/29 08:50:43;;;;;;;25.88;14.00;;;12.30;68.10;;;;;;20677231;28;20097;-49
2022/03/29 09:00:46;;;;;;;27.38;14.88;;;12.60;65.60;;;;;;20675637;28;20548;-52
2022/03/29 09:10:51;;;;;;;26.40;14.40;;;13.00;65.90;;;;;;20676395;28;20042;-50
2022/03/29 09:21:09;;;;;;;27.65;15.48;;;13.10;66.70;;;;;;20673849;28;20096;-54
2022/03/29 09:31:20;;;;;;;27.20;13.65;;;13.40;65.10;;;;;;20673083;28;20397;-54
2022/03/29 09:41:28;;;;;;;23.65;13.85;;;13.80;64.90;;;;;;20655261;28;20058;-54
2022/03/29 09:51:34;;;;;;;26.15;14.48;;;14.00;64.60;;;;;;20655318;28;20468;-48
2022/03/29 10:01:57;;;;;;;23.30;14.30;;;14.70;63.50;;;;;;20656100;28;20054;-54
2022/03/29 10:12:05;;;;;;;25.30;15.27;;;14.90;62.60;;;;;;20638494;28;20042;-55
2022/03/29 10:22:08;;;;;;;28.35;15.88;;;15.50;59.50;;;;;;20653448;28;20116;-54
2022/03/29 10:32:26;;;;;;;27.92;15.85;;;15.80;62.60;;;;;;20669083;28;20042;-54
2022/03/29 10:42:42;;;;;;;24.77;15.13;;;15.80;62.30;;;;;;20668601;28;20054;-53
2022/03/29 10:52:47;;;;;;;25.75;15.85;;;15.80;62.90;;;;;;20663756;28;20497;-50
2022/03/29 11:03:21;;;;;;;27.77;17.08;;;16.00;63.50;;;;;;20684528;28;20089;-55
2022/03/29 11:13:27;;;;;;;31.00;18.92;;;15.80;66.40;;;;;;20683838;28;20034;-47
2022/03/29 11:23:45;;;;;;;36.85;20.67;;;15.10;67.70;;;;;;20683208;28;20096;-48
2022/03/29 11:33:50;;;;;;;35.87;20.97;;;14.30;70.70;;;;;;20682343;28;20554;-49
2022/03/29 11:43:54;;;;;;;36.22;21.30;;;14.10;73.40;;;;;;20681339;28;20042;-48
2022/03/29 11:53:57;;;;;;;36.40;21.75;;;14.80;71.30;;;;;;20680587;28;20038;-51
2022/03/29 12:04:03;;;;;;;36.85;22.02;;;14.90;72.70;;;;;;20678996;28;20038;-54
2022/03/29 12:14:32;;;;;;;30.38;20.02;;;15.50;69.00;;;;;;20679537;28;20038;-51
2022/03/29 12:24:38;;;;;;;29.87;18.90;;;15.40;69.60;;;;;;20659980;28;20089;-54
2022/03/29 12:34:42;;;;;;;31.92;20.90;;;15.90;69.10;;;;;;20661238;28;20038;-52
2022/03/29 12:44:53;;;;;;;34.15;21.50;;;16.50;68.70;;;;;;20644095;28;20097;-50
2022/03/29 12:55:04;;;;;;;33.80;20.35;;;17.10;65.20;;;;;;20675920;28;20034;-53
2022/03/29 13:05:07;;;;;;;33.05;20.50;;;16.40;66.80;;;;;;20675364;28;20034;-51
2022/03/29 13:15:30;;;;;;;38.25;21.35;;;15.60;68.80;;;;;;20674138;28;20092;-53
2022/03/29 13:25:34;;;;;;;47.00;25.50;;;15.30;71.00;;;;;;20673492;28;20038;-55
2022/03/29 13:35:50;;;;;;;36.33;21.00;;;15.00;69.70;;;;;;20673263;28;20062;-54
2022/03/29 13:45:53;;;;;;;40.15;23.70;;;14.70;71.50;;;;;;20671872;28;20100;-47
2022/03/29 13:55:56;;;;;;;34.72;20.60;;;14.60;72.60;;;;;;20671205;28;20092;-52
2022/03/29 14:06:03;;;;;;;34.78;22.15;;;14.10;74.20;;;;;;20637959;28;20556;-51
2022/03/29 14:16:06;;;;;;;32.45;19.38;;;14.20;74.50;;;;;;20670123;28;20484;-53
2022/03/29 14:26:08;;;;;;;36.03;21.10;;;13.80;75.40;;;;;;20668960;28;20038;-54
2022/03/29 14:36:11;;;;;;;43.45;22.30;;;13.40;77.10;;;;;;20668841;28;20050;-47
2022/03/29 14:46:15;;;;;;;41.63;22.30;;;13.10;77.30;;;;;;20636054;28;20560;-52
2022/03/29 14:56:17;;;;;;;36.40;21.52;;;13.00;77.50;;;;;;20668223;28;20030;-46
2022/03/29 15:06:19;;;;;;;42.40;23.15;;;12.40;80.00;;;;;;20667802;28;20081;-47
2022/03/29 15:16:22;;;;;;;39.65;21.23;;;11.90;82.00;;;;;;20667449;28;20047;-50
2022/03/29 15:26:25;;;;;;;43.35;22.17;;;11.30;84.20;;;;;;20667072;28;20061;-47
2022/03/29 15:36:28;;;;;;;43.85;23.67;;;10.70;86.30;;;;;;20670198;28;20062;-52
2022/03/29 15:46:31;;;;;;;41.22;23.35;;;10.00;88.20;;;;;;20681962;28;20053;-52
2022/03/29 15:56:33;;;;;;;42.83;23.30;;;9.60;89.40;;;;;;20680561;28;20088;-51
2022/03/29 16:06:36;;;;;;;44.25;23.52;;;9.20;90.40;;;;;;20679560;28;20383;-50
2022/03/29 16:16:40;;;;;;;42.40;23.40;;;8.70;91.20;;;;;;20678611;28;20034;-53
2022/03/29 16:26:42;;;;;;;40.33;23.23;;;8.00;92.20;;;;;;20677491;28;20092;-52
2022/03/29 16:36:46;;;;;;;43.33;24.27;;;7.60;93.40;;;;;;20677312;28;20497;-49
2022/03/29 16:46:50;;;;;;;50.13;25.25;;;7.10;94.20;;;;;;20676076;28;20034;-52
2022/03/29 16:56:53;;;;;;;50.30;25.90;;;6.60;95.20;;;;;;20675715;28;20476;-47
2022/03/29 17:06:55;;;;;;;48.45;26.83;;;6.20;96.90;;;;;;20674526;28;20050;-45
2022/03/29 17:16:59;;;;;;;54.65;26.98;;;6.00;98.10;;;;;;20674255;28;20034;-45
2022/03/29 17:27:02;;;;;;;53.20;27.02;;;5.80;98.60;;;;;;20657147;28;20042;-49
2022/03/29 17:37:05;;;;;;;49.70;27.48;;;5.40;98.90;;;;;;20673112;28;20054;-47
2022/03/29 17:47:08;;;;;;;55.97;27.30;;;4.80;99.90;;;;;;20671565;28;20498;-46
2022/03/29 17:57:12;;;;;;;53.30;26.63;;;4.50;99.90;;;;;;20671276;28;20432;-49
2022/03/29 18:07:15;;;;;;;53.05;26.02;;;4.20;99.90;;;;;;20670403;28;20042;-46
2022/03/29 18:17:17;;;;;;;53.92;25.75;;;4.00;99.90;;;;;;20670588;28;20061;-46
2022/03/29 18:27:20;;;;;;;50.03;26.15;;;4.40;99.90;;;;;;20669309;28;20057;-46
2022/03/29 18:37:22;;;;;;;52.00;26.08;;;4.40;99.90;;;;;;20668648;28;20081;-45
2022/03/29 18:47:33;;;;;;;48.53;24.67;;;3.90;99.90;;;;;;20668367;28;20485;-46
2022/03/29 18:57:36;;;;;;;57.15;27.77;;;3.60;99.90;;;;;;20668157;28;20058;-46
2022/03/29 19:07:41;;;;;;;51.45;26.58;;;3.70;99.90;;;;;;20667587;28;20034;-45
2022/03/29 19:17:44;;;;;;;54.38;27.50;;;3.80;99.90;;;;;;20658268;28;20085;-48
2022/03/29 19:27:47;;;;;;;49.22;27.42;;;4.00;99.90;;;;;;20641662;28;20050;-46
2022/03/29 19:37:51;;;;;;;51.35;25.85;;;3.80;99.90;;;;;;20640779;28;20046;-47
2022/03/29 19:47:55;;;;;;;42.50;23.17;;;3.90;99.90;;;;;;20637658;28;20109;-45
2022/03/29 19:57:59;;;;;;;45.97;23.63;;;4.20;99.90;;;;;;20643474;28;20563;-50
2022/03/29 20:08:02;;;;;;;44.85;24.10;;;4.20;99.90;;;;;;20664116;28;20038;-47
2022/03/29 20:18:08;;;;;;;50.15;23.45;;;3.60;99.90;;;;;;20679498;28;20093;-45
2022/03/29 20:28:11;;;;;;;45.22;23.48;;;3.20;99.90;;;;;;20677829;28;20030;-47
2022/03/29 20:38:14;;;;;;;45.67;25.10;;;3.10;99.90;;;;;;20677605;28;20556;-46
2022/03/29 20:48:20;;;;;;;48.00;22.80;;;3.40;99.90;;;;;;20677383;28;20065;-47
2022/03/29 20:58:22;;;;;;;37.92;19.80;;;4.10;99.90;;;;;;20677894;28;20872;-46
2022/03/29 21:08:25;;;;;;;42.50;23.05;;;4.30;99.90;;;;;;20676876;28;20039;-50
2022/03/29 21:18:28;;;;;;;42.17;22.25;;;4.30;99.90;;;;;;20674502;28;20338;-46
2022/03/29 21:28:33;;;;;;;44.55;26.58;;;4.30;99.90;;;;;;20674801;28;20437;-49
2022/03/29 21:38:35;;;;;;;42.88;23.23;;;4.30;99.90;;;;;;20673852;28;20101;-48
2022/03/29 21:48:39;;;;;;;43.08;23.80;;;4.40;99.90;;;;;;20672491;28;20046;-49
2022/03/29 21:58:41;;;;;;;43.35;24.05;;;4.50;99.90;;;;;;20655411;28;20042;-49
2022/03/29 22:09:02;;;;;;;45.60;24.30;;;4.60;99.90;;;;;;20656120;28;20130;-47
2022/03/29 22:19:05;;;;;;;46.58;24.25;;;4.50;99.90;;;;;;20670209;28;20104;-48
2022/03/29 22:29:08;;;;;;;46.20;24.98;;;4.30;99.90;;;;;;20653212;28;20038;-45
2022/03/29 22:39:10;;;;;;;43.80;22.48;;;4.30;99.90;;;;;;20636705;28;20062;-48
2022/03/29 22:49:14;;;;;;;40.03;23.02;;;4.70;99.90;;;;;;20668419;28;20042;-47
2022/03/29 22:59:16;;;;;;;46.20;24.10;;;4.70;99.90;;;;;;20668529;28;20474;-49
2022/03/29 23:09:19;;;;;;;38.30;22.80;;;4.70;99.90;;;;;;20667942;28;20073;-51
2022/03/29 23:19:22;;;;;;;44.38;22.30;;;4.70;99.90;;;;;;20651658;28;20351;-46
2022/03/29 23:29:26;;;;;;;40.92;23.98;;;4.80;99.90;;;;;;20667670;28;20070;-46
2022/03/29 23:39:28;;;;;;;41.60;22.23;;;4.90;99.90;;;;;;20634840;28;20046;-46
2022/03/29 23:49:31;;;;;;;47.83;25.33;;;4.80;99.90;;;;;;20666452;28;20034;-46
2022/03/29 23:59:34;;;;;;;44.45;22.25;;;4.60;99.90;;;;;;20673240;28;20038;-45
